createdAt,value
2023-04-28T00:00:42.082Z,6.53
2023-04-28T00:03:47.111Z,6.45
2023-04-28T00:06:51.953Z,6.30
2023-04-28T00:09:57.087Z,8.65
2023-04-28T00:12:59.468Z,5.97
2023-04-28T00:16:01.734Z,7.43
2023-04-28T00:19:04.091Z,10.48
2023-04-28T00:22:06.418Z,9.90
2023-04-28T00:25:11.195Z,11.05
2023-04-28T00:28:30.568Z,11.32
2023-04-28T00:31:41.070Z,9.30
2023-04-28T00:34:43.398Z,10.45
2023-04-28T00:37:47.945Z,7.80
2023-04-28T00:40:55.759Z,10.38
2023-04-28T00:44:00.413Z,9.15
2023-04-28T00:47:05.716Z,8.32
2023-04-28T00:50:10.697Z,8.82
2023-04-28T00:53:21.264Z,8.52
2023-04-28T00:56:31.400Z,8.48
2023-04-28T00:59:35.878Z,9.13
2023-04-28T01:02:42.995Z,9.85
2023-04-28T01:05:48.056Z,7.38
2023-04-28T01:08:53.344Z,9.57
2023-04-28T01:12:00.133Z,9.52
2023-04-28T01:15:16.583Z,10.73
2023-04-28T01:18:23.429Z,10.88
2023-04-28T01:24:40.214Z,13.38
2023-04-28T01:27:46.184Z,12.32
2023-04-28T01:30:48.968Z,9.32
2023-04-28T01:33:51.256Z,7.45
2023-04-28T01:36:53.536Z,8.70
2023-04-28T01:39:55.987Z,11.68
2023-04-28T01:43:00.670Z,10.38
2023-04-28T01:46:05.756Z,9.18
2023-04-28T01:49:08.163Z,9.80
2023-04-28T01:52:15.317Z,8.90
2023-04-28T01:55:17.684Z,8.70
2023-04-28T01:58:20.370Z,8.32
2023-04-28T02:01:22.764Z,8.85
2023-04-28T02:04:28.216Z,7.70
2023-04-28T02:07:30.563Z,11.95
2023-04-28T02:10:32.875Z,10.82
2023-04-28T02:13:37.427Z,8.30
2023-04-28T02:16:42.069Z,8.35
2023-04-28T02:19:47.316Z,15.00
2023-04-28T02:22:50.435Z,10.27
2023-04-28T02:26:01.477Z,10.95
2023-04-28T02:29:06.238Z,10.27
2023-04-28T02:32:08.879Z,11.00
2023-04-28T02:35:11.154Z,8.07
2023-04-28T02:38:13.673Z,9.15
2023-04-28T02:41:16.292Z,7.85
2023-04-28T02:44:18.850Z,8.63
2023-04-28T02:47:21.209Z,10.85
2023-04-28T02:50:23.700Z,10.45
2023-04-28T02:53:28.200Z,8.25
2023-04-28T02:56:30.843Z,8.43
2023-04-28T02:59:36.390Z,11.80
2023-04-28T03:02:38.726Z,7.05
2023-04-28T03:05:41.194Z,7.75
2023-04-28T03:08:45.710Z,10.77
2023-04-28T03:11:50.340Z,10.05
2023-04-28T03:14:52.642Z,11.50
2023-04-28T03:17:55.084Z,8.85
2023-04-28T03:20:59.658Z,8.73
2023-04-28T03:24:12.330Z,8.35
2023-04-28T03:27:17.356Z,10.77
2023-04-28T03:30:19.834Z,8.80
2023-04-28T03:33:24.672Z,6.35
2023-04-28T03:36:29.397Z,7.88
2023-04-28T03:39:36.394Z,6.53
2023-04-28T03:42:38.979Z,10.25
2023-04-28T03:45:43.977Z,9.13
2023-04-28T03:48:46.418Z,11.15
2023-04-28T03:51:51.288Z,7.93
2023-04-28T03:54:56.721Z,9.50
2023-04-28T03:58:03.815Z,9.02
2023-04-28T04:01:06.169Z,9.13
2023-04-28T04:04:08.815Z,13.65
2023-04-28T04:07:11.778Z,10.00
2023-04-28T04:10:14.057Z,11.75
2023-04-28T04:13:20.909Z,8.98
2023-04-28T04:16:23.487Z,8.75
2023-04-28T04:19:31.571Z,8.57
2023-04-28T04:22:33.841Z,7.70
2023-04-28T04:25:36.263Z,11.45
2023-04-28T04:28:41.353Z,7.45
2023-04-28T04:31:45.506Z,7.75
2023-04-28T04:34:47.796Z,7.40
2023-04-28T04:37:51.077Z,10.68
2023-04-28T04:40:56.649Z,8.05
2023-04-28T04:43:58.896Z,8.02
2023-04-28T04:47:06.150Z,6.95
2023-04-28T04:50:15.026Z,7.60
2023-04-28T04:53:21.988Z,7.05
2023-04-28T04:56:24.277Z,5.95
2023-04-28T04:59:27.251Z,7.63
2023-04-28T05:02:45.958Z,7.93
2023-04-28T05:05:52.764Z,6.95
2023-04-28T05:09:04.899Z,8.88
2023-04-28T05:12:08.582Z,7.15
2023-04-28T05:15:15.408Z,6.55
2023-04-28T05:18:27.731Z,7.43
2023-04-28T05:21:34.744Z,7.60
2023-04-28T05:24:39.987Z,6.15
2023-04-28T05:27:44.731Z,11.00
2023-04-28T05:30:47.026Z,6.30
2023-04-28T05:33:52.015Z,9.27
2023-04-28T05:36:54.549Z,7.57
2023-04-28T05:43:05.078Z,11.77
2023-04-28T05:46:18.129Z,8.90
2023-04-28T05:49:33.134Z,8.82
2023-04-28T05:52:38.020Z,10.40
2023-04-28T05:55:42.583Z,8.13
2023-04-28T05:58:45.376Z,8.85
2023-04-28T06:01:51.091Z,7.80
2023-04-28T06:04:53.641Z,7.05
2023-04-28T06:07:56.275Z,7.38
2023-04-28T06:10:58.618Z,8.20
2023-04-28T06:14:03.719Z,10.80
2023-04-28T06:17:06.192Z,7.78
2023-04-28T06:20:13.777Z,8.27
2023-04-28T06:23:16.785Z,8.65
2023-04-28T06:29:24.833Z,7.03
2023-04-28T06:32:28.000Z,10.23
2023-04-28T06:35:35.780Z,8.43
2023-04-28T06:38:38.187Z,8.73
2023-04-28T06:41:43.183Z,7.90
2023-04-28T06:44:46.508Z,7.00
2023-04-28T06:47:48.951Z,5.78
2023-04-28T06:50:53.809Z,6.82
2023-04-28T06:53:58.069Z,6.45
2023-04-28T06:57:02.499Z,9.15
2023-04-28T07:00:05.421Z,6.20
2023-04-28T07:03:07.992Z,5.38
2023-04-28T07:06:12.944Z,13.27
2023-04-28T07:09:18.001Z,6.43
2023-04-28T07:12:21.494Z,5.20
2023-04-28T07:15:28.654Z,5.40
2023-04-28T07:18:31.177Z,9.00
2023-04-28T07:21:34.476Z,7.13
2023-04-28T07:24:39.360Z,7.70
2023-04-28T07:27:41.812Z,5.47
2023-04-28T07:30:46.709Z,6.47
2023-04-28T07:33:48.934Z,9.32
2023-04-28T07:36:51.334Z,7.85
2023-04-28T07:39:53.657Z,7.03
2023-04-28T07:42:58.780Z,7.85
2023-04-28T07:46:04.294Z,8.70
2023-04-28T07:49:09.837Z,7.50
2023-04-28T07:52:12.145Z,7.28
2023-04-28T07:55:14.497Z,9.20
2023-04-28T07:58:19.349Z,7.90
2023-04-28T08:01:21.716Z,7.70
2023-04-28T08:04:32.292Z,8.68
2023-04-28T08:07:35.677Z,5.65
2023-04-28T08:10:43.062Z,7.07
2023-04-28T08:13:45.270Z,6.10
2023-04-28T08:16:48.501Z,6.95
2023-04-28T08:19:50.771Z,7.13
2023-04-28T08:22:58.122Z,7.53
2023-04-28T08:26:01.738Z,5.57
2023-04-28T08:29:04.770Z,7.40
2023-04-28T08:32:11.875Z,5.68
2023-04-28T08:35:16.359Z,4.88
2023-04-28T08:38:19.000Z,5.10
2023-04-28T08:44:26.326Z,5.97
2023-04-28T08:47:31.578Z,7.05
2023-04-28T08:50:35.666Z,7.15
2023-04-28T08:54:05.976Z,4.80
2023-04-28T08:57:05.606Z,3.42
2023-04-28T09:00:12.118Z,7.70
2023-04-28T09:03:15.167Z,5.60
2023-04-28T09:06:19.830Z,5.72
2023-04-28T09:09:33.313Z,5.82
2023-04-28T09:12:41.929Z,4.38
2023-04-28T09:15:45.546Z,6.43
2023-04-28T09:19:02.639Z,5.90
2023-04-28T09:22:21.678Z,3.97
2023-04-28T09:25:28.195Z,6.18
2023-04-28T09:28:31.718Z,4.57
2023-04-28T09:31:40.603Z,4.90
2023-04-28T09:34:48.551Z,5.10
2023-04-28T09:37:58.629Z,4.20
2023-04-28T09:41:05.771Z,4.53
2023-04-28T09:44:19.758Z,4.40
2023-04-28T09:47:27.837Z,3.83
2023-04-28T09:50:40.674Z,6.28
2023-04-28T09:53:45.533Z,6.05
2023-04-28T09:56:48.303Z,5.38
2023-04-28T09:59:54.397Z,4.68
2023-04-28T10:02:57.243Z,4.30
2023-04-28T10:06:03.313Z,3.58
2023-04-28T10:09:08.468Z,4.45
2023-04-28T10:12:12.396Z,4.60
2023-04-28T10:15:14.901Z,4.43
2023-04-28T10:18:17.548Z,4.28
2023-04-28T10:21:22.537Z,5.05
2023-04-28T10:24:33.240Z,4.55
2023-04-28T10:27:37.029Z,3.17
2023-04-28T10:30:41.698Z,5.97
2023-04-28T10:33:47.750Z,3.75
2023-04-28T10:36:52.949Z,4.03
2023-04-28T10:43:28.720Z,3.67
2023-04-28T10:47:10.119Z,4.15
2023-04-28T10:50:14.907Z,3.97
2023-04-28T10:53:19.910Z,4.45
2023-04-28T10:56:26.529Z,4.15
2023-04-28T10:59:28.909Z,5.00
2023-04-28T11:02:42.612Z,2.92
2023-04-28T11:06:19.776Z,4.45
2023-04-28T11:09:31.397Z,4.90
2023-04-28T11:12:33.702Z,4.65
2023-04-28T11:15:37.651Z,4.45
2023-04-28T11:18:55.404Z,4.32
2023-04-28T11:21:59.949Z,3.50
2023-04-28T11:25:04.102Z,3.17
2023-04-28T11:28:09.511Z,5.43
2023-04-28T11:31:24.006Z,3.50
2023-04-28T11:34:26.758Z,2.75
2023-04-28T11:37:29.088Z,4.75
2023-04-28T11:40:31.515Z,4.25
2023-04-28T11:43:47.041Z,4.00
2023-04-28T11:46:51.832Z,6.90
2023-04-28T11:49:56.975Z,5.80
2023-04-28T11:52:59.289Z,4.43
2023-04-28T11:56:10.718Z,5.10
2023-04-28T11:59:14.224Z,4.13
2023-04-28T12:02:24.305Z,4.93
2023-04-28T12:05:26.715Z,4.43
2023-04-28T12:08:31.886Z,5.47
2023-04-28T12:11:36.644Z,3.92
2023-04-28T12:15:02.488Z,14.30
2023-04-28T12:18:16.372Z,5.63
2023-04-28T12:21:22.032Z,5.65
2023-04-28T12:24:27.087Z,6.00
2023-04-28T12:27:29.398Z,4.38
2023-04-28T12:30:39.165Z,5.40
2023-04-28T12:33:44.649Z,5.50
2023-04-28T12:36:47.030Z,5.18
2023-04-28T12:39:49.279Z,3.08
2023-04-28T12:42:51.725Z,6.60
2023-04-28T12:45:58.827Z,4.20
2023-04-28T12:49:03.353Z,5.70
2023-04-28T12:52:06.729Z,5.93
2023-04-28T12:55:11.543Z,5.68
2023-04-28T12:58:16.237Z,4.68
2023-04-28T13:01:20.863Z,4.82
2023-04-28T13:04:23.525Z,3.72
2023-04-28T13:07:30.853Z,3.63
2023-04-28T13:10:35.561Z,3.72
2023-04-28T13:13:38.046Z,5.18
2023-04-28T13:16:40.478Z,5.88
2023-04-28T13:19:43.873Z,3.33
2023-04-28T13:22:48.587Z,6.22
2023-04-28T13:25:53.387Z,3.67
2023-04-28T13:28:56.299Z,4.32
2023-04-28T13:32:01.233Z,5.15
2023-04-28T13:35:09.031Z,3.22
2023-04-28T13:38:13.606Z,4.68
2023-04-28T13:41:21.694Z,4.28
2023-04-28T13:44:25.079Z,2.75
2023-04-28T13:47:32.643Z,4.03
2023-04-28T13:50:38.951Z,5.35
2023-04-28T13:53:43.025Z,5.95
2023-04-28T13:56:45.290Z,4.80
2023-04-28T13:59:50.106Z,3.53
2023-04-28T14:02:52.596Z,3.05
2023-04-28T14:05:58.677Z,3.75
2023-04-28T14:09:03.578Z,4.22
2023-04-28T14:12:15.306Z,14.90
2023-04-28T14:15:18.161Z,5.72
2023-04-28T14:18:25.278Z,4.00
2023-04-28T14:21:30.106Z,4.13
2023-04-28T14:24:32.501Z,3.38
2023-04-28T14:27:37.272Z,6.88
2023-04-28T14:30:42.873Z,4.90
2023-04-28T14:33:45.169Z,5.63
2023-04-28T14:36:49.838Z,4.20
2023-04-28T14:39:52.164Z,4.30
2023-04-28T14:42:57.013Z,4.22
2023-04-28T14:45:59.490Z,4.35
2023-04-28T14:49:02.804Z,4.45
2023-04-28T14:52:07.653Z,4.80
2023-04-28T14:55:13.668Z,4.05
2023-04-28T14:58:16.063Z,3.40
2023-04-28T15:01:23.168Z,4.25
2023-04-28T15:04:29.881Z,3.55
2023-04-28T15:07:32.725Z,3.13
2023-04-28T15:10:41.813Z,5.93
2023-04-28T15:13:47.643Z,4.65
2023-04-28T15:16:52.501Z,7.95
2023-04-28T15:19:54.787Z,6.90
2023-04-28T15:22:59.789Z,11.55
2023-04-28T15:26:02.573Z,13.52
2023-04-28T15:29:08.076Z,9.23
2023-04-28T15:32:14.088Z,8.02
2023-04-28T15:35:16.618Z,9.07
2023-04-28T15:38:20.543Z,14.48
2023-04-28T15:41:25.962Z,17.60
2023-04-28T15:44:33.375Z,16.40
2023-04-28T15:47:36.043Z,10.23
2023-04-28T15:50:41.767Z,8.43
2023-04-28T15:53:44.223Z,6.30
2023-04-28T15:56:46.479Z,5.18
2023-04-28T15:59:54.019Z,4.57
2023-04-28T16:02:56.676Z,4.57
2023-04-28T16:06:01.626Z,5.68
2023-04-28T16:09:09.112Z,3.60
2023-04-28T16:12:11.376Z,3.65
2023-04-28T16:15:14.082Z,3.78
2023-04-28T16:18:19.171Z,3.85
2023-04-28T16:21:21.490Z,2.97
2023-04-28T16:24:24.530Z,4.80
2023-04-28T16:27:30.072Z,5.53
2023-04-28T16:30:34.542Z,5.20
2023-04-28T16:33:40.670Z,3.72
2023-04-28T16:36:42.925Z,4.25
2023-04-28T16:39:45.460Z,4.90
2023-04-28T16:42:47.777Z,3.90
2023-04-28T16:45:54.834Z,3.20
2023-04-28T16:48:57.124Z,3.53
2023-04-28T16:52:09.580Z,6.10
2023-04-28T16:55:15.194Z,4.88
2023-04-28T16:58:17.509Z,4.25
2023-04-28T17:01:24.704Z,5.18
2023-04-28T17:04:28.464Z,3.92
2023-04-28T17:07:33.530Z,6.63
2023-04-28T17:10:38.863Z,5.00
2023-04-28T17:13:42.198Z,5.53
2023-04-28T17:16:44.804Z,4.90
2023-04-28T17:19:47.417Z,4.40
2023-04-28T17:22:53.104Z,4.45
2023-04-28T17:25:55.929Z,5.07
2023-04-28T17:28:58.994Z,5.70
2023-04-28T17:32:01.204Z,4.45
2023-04-28T17:35:06.532Z,7.30
2023-04-28T17:38:11.576Z,7.72
2023-04-28T17:41:15.072Z,10.65
2023-04-28T17:44:17.357Z,11.65
2023-04-28T17:47:19.784Z,13.45
2023-04-28T17:50:22.104Z,22.67
2023-04-28T17:53:24.461Z,22.23
2023-04-28T17:56:27.087Z,31.80
2023-04-28T17:59:32.180Z,40.05
2023-04-28T18:02:37.004Z,50.35
2023-04-28T18:05:41.580Z,53.65
2023-04-28T18:08:46.110Z,51.08
2023-04-28T18:11:50.799Z,62.13
2023-04-28T18:14:58.009Z,64.38
2023-04-28T18:18:00.497Z,68.43
2023-04-28T18:21:07.264Z,72.82
2023-04-28T18:24:09.528Z,60.83
2023-04-28T18:27:14.015Z,58.35
2023-04-28T18:30:18.877Z,66.60
2023-04-28T18:33:28.547Z,77.28
2023-04-28T18:36:38.613Z,76.93
2023-04-28T18:39:41.107Z,82.68
2023-04-28T18:42:49.033Z,66.85
2023-04-28T18:45:53.710Z,58.55
2023-04-28T18:48:56.555Z,59.97
2023-04-28T18:52:03.516Z,61.85
2023-04-28T18:55:06.074Z,55.13
2023-04-28T18:58:08.536Z,62.40
2023-04-28T19:01:15.826Z,65.60
2023-04-28T19:04:22.906Z,61.80
2023-04-28T19:07:26.421Z,57.40
2023-04-28T19:10:28.706Z,50.58
2023-04-28T19:13:31.073Z,46.33
2023-04-28T19:16:35.600Z,50.55
2023-04-28T19:19:40.533Z,47.28
2023-04-28T19:22:43.907Z,48.97
2023-04-28T19:25:48.808Z,48.72
2023-04-28T19:28:53.388Z,64.10
2023-04-28T19:31:56.208Z,49.10
2023-04-28T19:34:58.481Z,49.78
2023-04-28T19:38:03.236Z,58.28
2023-04-28T19:41:05.916Z,53.00
2023-04-28T19:44:08.137Z,40.70
2023-04-28T19:47:22.669Z,39.97
2023-04-28T19:50:24.979Z,45.95
2023-04-28T19:53:27.512Z,44.50
2023-04-28T19:56:32.554Z,49.65
2023-04-28T19:59:34.878Z,37.85
2023-04-28T20:02:37.381Z,34.80
2023-04-28T20:05:39.974Z,30.05
2023-04-28T20:08:42.319Z,26.45
2023-04-28T20:11:47.075Z,28.50
2023-04-28T20:14:49.455Z,25.38
2023-04-28T20:17:51.696Z,23.92
2023-04-28T20:20:54.001Z,24.25
2023-04-28T20:23:56.287Z,19.77
2023-04-28T20:26:59.193Z,15.88
2023-04-28T20:30:04.806Z,17.27
2023-04-28T20:33:08.780Z,14.60
2023-04-28T20:36:14.981Z,9.07
2023-04-28T20:39:17.379Z,8.65
2023-04-28T20:42:19.759Z,12.07
2023-04-28T20:45:24.934Z,15.43
2023-04-28T20:48:29.112Z,11.88
2023-04-28T20:51:35.142Z,10.30
2023-04-28T20:54:37.537Z,7.47
2023-04-28T20:57:39.889Z,9.00
2023-04-28T21:00:44.630Z,10.93
2023-04-28T21:03:47.127Z,9.63
2023-04-28T21:06:50.781Z,9.38
2023-04-28T21:09:53.389Z,7.45
2023-04-28T21:12:55.723Z,12.40
2023-04-28T21:16:00.507Z,6.05
2023-04-28T21:19:03.303Z,6.50
2023-04-28T21:22:08.959Z,6.00
2023-04-28T21:25:11.405Z,5.13
2023-04-28T21:28:15.101Z,6.65
2023-04-28T21:31:17.620Z,5.30
2023-04-28T21:34:22.831Z,5.22
2023-04-28T21:37:28.016Z,10.50
2023-04-28T21:40:33.236Z,5.95
2023-04-28T21:46:40.799Z,6.57
2023-04-28T21:49:44.032Z,6.68
2023-04-28T21:52:46.417Z,5.47
2023-04-28T21:55:49.261Z,4.03
2023-04-28T21:58:51.501Z,4.85
2023-04-28T22:01:57.157Z,6.00
2023-04-28T22:05:01.879Z,5.68
2023-04-28T22:08:04.663Z,5.63
2023-04-28T22:11:07.353Z,4.88
2023-04-28T22:14:12.014Z,3.92
2023-04-28T22:17:17.766Z,7.53
2023-04-28T22:20:22.404Z,4.47
2023-04-28T22:23:27.366Z,6.65
2023-04-28T22:26:29.897Z,6.07
2023-04-28T22:29:34.692Z,5.30
2023-04-28T22:32:37.306Z,4.32
2023-04-28T22:35:39.808Z,5.00
2023-04-28T22:38:42.327Z,4.60
2023-04-28T22:41:49.431Z,7.80
2023-04-28T22:44:51.758Z,4.85
2023-04-28T22:47:54.597Z,7.75
2023-04-28T22:50:57.038Z,4.80
2023-04-28T22:54:04.029Z,6.60
2023-04-28T22:57:06.658Z,4.63
2023-04-28T23:00:09.453Z,6.78
2023-04-28T23:03:12.092Z,6.20
2023-04-28T23:06:14.418Z,6.30
2023-04-28T23:09:20.079Z,8.00
2023-04-28T23:12:22.329Z,5.82
2023-04-28T23:15:24.627Z,6.00
2023-04-28T23:18:31.623Z,7.18
2023-04-28T23:21:36.714Z,8.13
2023-04-28T23:24:40.069Z,6.03
2023-04-28T23:27:42.318Z,4.90
2023-04-28T23:30:46.964Z,5.28
2023-04-28T23:33:51.509Z,6.90
2023-04-28T23:36:58.226Z,7.20
2023-04-28T23:40:00.468Z,5.43
2023-04-28T23:43:02.775Z,5.25
2023-04-28T23:46:06.762Z,6.72
2023-04-28T23:49:09.427Z,5.47
2023-04-28T23:52:13.924Z,6.15
2023-04-28T23:55:16.355Z,4.40
2023-04-28T23:58:21.101Z,6.90
